Milford, Delaware
Current Conditions -  °F | °C
As of 10:58 PM on Thursday 18 Dec 2014 (Local Time) from KDOV Reporting Station
Scattered Clouds Scattered Clouds  
Wind Chill: 30°   Ceiling: Unl
Heat Index: 35°   Visibility: 10mi
Dew Point: 25°   Wind: 6mph
Humidity: 67%   Direction: 290°WNW
Pressure: 30.05"   Gusts: NA
Location:  38.93°N, 75.43°W
Report Text: KDOV 190358Z AUTO 29005KT 10SM FEW110 SCT140 02/M04 A3005 RMK AO2 SLPNO T00191037
Loading
Personal Weather Stations






























Interactive Weather Map New forecast layout! Learn more

10-Day Weather Forecast

Advertisements
Track Severe Weather on mobile